createdAt,value
2022-12-15T00:00:09.106Z,47.38
2022-12-15T00:03:23.846Z,41.55
2022-12-15T00:06:14.988Z,40.13
2022-12-15T00:09:11.151Z,52.83
2022-12-15T00:12:05.021Z,71.20
2022-12-15T00:14:56.304Z,56.17
2022-12-15T00:17:47.386Z,53.53
2022-12-15T00:20:38.570Z,48.40
2022-12-15T00:23:30.785Z,54.45
2022-12-15T00:26:22.442Z,48.83
2022-12-15T00:29:14.618Z,46.00
2022-12-15T00:32:05.819Z,54.15
2022-12-15T00:34:56.749Z,61.30
2022-12-15T00:37:47.999Z,47.85
2022-12-15T00:40:20.529Z,40.07
2022-12-15T00:42:53.435Z,35.15
2022-12-15T00:45:45.879Z,45.97
2022-12-15T00:48:18.722Z,58.45
2022-12-15T00:50:54.099Z,55.05
2022-12-15T00:53:45.265Z,42.80
2022-12-15T00:56:36.426Z,61.00
2022-12-15T00:59:28.361Z,49.63
2022-12-15T01:02:19.168Z,65.97
2022-12-15T01:05:10.731Z,58.60
2022-12-15T01:08:01.786Z,59.50
2022-12-15T01:10:53.051Z,62.00
2022-12-15T01:13:44.110Z,65.30
2022-12-15T01:16:41.388Z,52.85
2022-12-15T01:19:32.721Z,47.95
2022-12-15T01:22:06.656Z,63.38
2022-12-15T01:24:39.274Z,49.17
2022-12-15T01:27:12.173Z,72.65
2022-12-15T01:29:44.882Z,61.40
2022-12-15T01:32:17.826Z,59.92
2022-12-15T01:34:50.391Z,62.03
2022-12-15T01:37:23.302Z,43.15
2022-12-15T01:40:14.660Z,62.25
2022-12-15T01:42:47.548Z,53.20
2022-12-15T01:45:29.335Z,77.18
2022-12-15T01:48:06.980Z,68.10
2022-12-15T01:50:44.555Z,64.53
2022-12-15T01:53:17.892Z,74.55
2022-12-15T01:55:51.122Z,64.05
2022-12-15T01:58:24.119Z,68.93
2022-12-15T02:00:57.332Z,62.05
2022-12-15T02:03:32.310Z,52.45
2022-12-15T02:06:05.379Z,51.30
2022-12-15T02:08:38.518Z,69.03
2022-12-15T02:11:14.028Z,76.28
2022-12-15T02:14:07.222Z,71.05
2022-12-15T02:16:58.339Z,83.53
2022-12-15T02:19:31.346Z,87.93
2022-12-15T02:22:18.327Z,58.83
2022-12-15T02:24:57.743Z,68.65
2022-12-15T02:27:39.427Z,61.25
2022-12-15T02:30:30.712Z,67.45
2022-12-15T02:33:24.633Z,54.97
2022-12-15T02:36:00.490Z,60.38
2022-12-15T02:38:35.395Z,57.13
2022-12-15T02:41:28.176Z,60.92
2022-12-15T02:44:01.888Z,57.72
2022-12-15T02:46:56.124Z,44.47
2022-12-15T02:49:35.796Z,43.72
2022-12-15T02:52:11.883Z,47.83
2022-12-15T02:54:54.560Z,66.40
2022-12-15T02:57:30.553Z,74.32
2022-12-15T03:00:07.365Z,34.55
2022-12-15T03:02:43.190Z,45.95
2022-12-15T03:05:16.962Z,45.45
2022-12-15T03:07:50.487Z,77.50
2022-12-15T03:10:24.797Z,52.97
2022-12-15T03:12:59.175Z,55.80
2022-12-15T03:15:35.597Z,49.95
2022-12-15T03:18:08.884Z,51.70
2022-12-15T03:20:41.429Z,49.33
2022-12-15T03:23:14.291Z,43.92
2022-12-15T03:25:49.967Z,46.75
2022-12-15T03:28:23.325Z,39.53
2022-12-15T03:30:56.792Z,51.13
2022-12-15T03:33:30.365Z,39.65
2022-12-15T03:36:03.335Z,42.45
2022-12-15T03:38:36.215Z,48.80
2022-12-15T03:41:08.837Z,63.97
2022-12-15T03:43:41.651Z,55.90
2022-12-15T03:46:14.167Z,56.13
2022-12-15T03:48:47.081Z,56.83
2022-12-15T03:51:24.447Z,54.33
2022-12-15T03:53:59.426Z,56.85
2022-12-15T03:56:32.774Z,54.40
2022-12-15T03:59:05.733Z,47.08
2022-12-15T04:01:38.368Z,52.90
2022-12-15T04:04:11.381Z,49.15
2022-12-15T04:06:43.950Z,54.08
2022-12-15T04:09:16.885Z,48.08
2022-12-15T04:11:49.462Z,47.22
2022-12-15T04:14:22.419Z,40.67
2022-12-15T04:16:55.089Z,33.20
2022-12-15T04:19:46.464Z,36.38
2022-12-15T04:22:19.060Z,38.58
2022-12-15T04:25:10.593Z,34.85
2022-12-15T04:28:02.037Z,30.13
2022-12-15T04:30:53.517Z,34.75
2022-12-15T04:33:44.767Z,27.33
2022-12-15T04:36:36.368Z,29.65
2022-12-15T04:39:27.478Z,34.17
2022-12-15T04:42:19.988Z,26.27
2022-12-15T04:45:17.004Z,34.67
2022-12-15T04:48:11.651Z,29.65
2022-12-15T04:51:02.872Z,23.60
2022-12-15T04:53:54.019Z,44.38
2022-12-15T04:56:45.176Z,31.35
2022-12-15T04:59:36.454Z,53.65
2022-12-15T05:02:28.171Z,34.35
2022-12-15T05:05:19.831Z,53.63
2022-12-15T05:08:11.118Z,60.38
2022-12-15T05:11:02.464Z,72.18
2022-12-15T05:13:53.687Z,75.63
2022-12-15T05:16:44.917Z,66.38
2022-12-15T05:19:36.158Z,36.80
2022-12-15T05:22:27.388Z,74.43
2022-12-15T05:25:18.535Z,94.73
2022-12-15T05:28:09.925Z,57.75
2022-12-15T05:31:01.473Z,78.97
2022-12-15T05:33:34.717Z,52.80
2022-12-15T05:36:07.715Z,44.38
2022-12-15T05:38:40.591Z,36.47
2022-12-15T05:41:13.074Z,38.15
2022-12-15T05:43:46.350Z,38.05
2022-12-15T05:46:20.059Z,39.58
2022-12-15T05:48:53.130Z,42.75
2022-12-15T05:51:25.863Z,42.78
2022-12-15T05:53:59.008Z,41.08
2022-12-15T05:56:31.564Z,30.48
2022-12-15T05:59:05.054Z,29.00
2022-12-15T06:01:37.690Z,43.88
2022-12-15T06:04:12.214Z,27.33
2022-12-15T06:06:44.813Z,31.27
2022-12-15T06:09:18.383Z,54.45
2022-12-15T06:11:50.905Z,55.83
2022-12-15T06:14:23.824Z,63.50
2022-12-15T06:16:56.616Z,60.17
2022-12-15T06:19:29.588Z,33.45
2022-12-15T06:22:02.117Z,38.47
2022-12-15T06:24:35.037Z,25.52
2022-12-15T06:27:07.591Z,37.10
2022-12-15T06:29:40.570Z,29.55
2022-12-15T06:32:13.155Z,35.05
2022-12-15T06:34:46.145Z,35.97
2022-12-15T06:37:18.656Z,34.72
2022-12-15T06:39:51.535Z,63.30
2022-12-15T06:42:24.007Z,66.18
2022-12-15T06:44:57.019Z,35.90
2022-12-15T06:47:29.727Z,26.33
2022-12-15T06:50:02.726Z,28.60
2022-12-15T06:52:35.232Z,36.47
2022-12-15T06:55:08.373Z,35.88
2022-12-15T06:57:40.918Z,47.10
2022-12-15T07:00:15.689Z,36.05
2022-12-15T07:02:50.113Z,37.97
2022-12-15T07:05:23.553Z,32.47
2022-12-15T07:07:56.176Z,40.28
2022-12-15T07:10:29.259Z,49.10
2022-12-15T07:13:01.892Z,41.17
2022-12-15T07:15:34.786Z,45.47
2022-12-15T07:18:07.984Z,31.35
2022-12-15T07:20:40.890Z,40.53
2022-12-15T07:23:13.331Z,32.88
2022-12-15T07:25:46.246Z,30.30
2022-12-15T07:28:24.125Z,47.50
2022-12-15T07:31:06.055Z,40.33
2022-12-15T07:33:38.665Z,41.45
2022-12-15T07:36:11.836Z,49.28
2022-12-15T07:38:51.109Z,51.78
2022-12-15T07:41:24.284Z,73.93
2022-12-15T07:43:57.265Z,47.47
2022-12-15T07:46:30.358Z,57.42
2022-12-15T07:49:03.029Z,64.60
2022-12-15T07:51:35.988Z,71.90
2022-12-15T07:54:11.745Z,61.60
2022-12-15T07:56:44.827Z,50.58
2022-12-15T07:59:24.041Z,39.78
2022-12-15T08:01:57.324Z,36.55
2022-12-15T08:04:32.846Z,35.28
2022-12-15T08:07:06.988Z,43.10
2022-12-15T08:09:39.950Z,39.95
2022-12-15T08:12:12.887Z,44.40
2022-12-15T08:14:45.427Z,48.58
2022-12-15T08:17:23.358Z,37.33
2022-12-15T08:19:58.914Z,42.70
2022-12-15T08:22:32.276Z,34.55
2022-12-15T08:25:04.922Z,40.17
2022-12-15T08:27:37.844Z,47.60
2022-12-15T08:30:10.713Z,36.92
2022-12-15T08:32:47.304Z,45.85
2022-12-15T08:35:54.409Z,47.03
2022-12-15T08:38:17.428Z,31.85
2022-12-15T08:40:50.040Z,39.97
2022-12-15T08:43:23.230Z,33.13
2022-12-15T08:45:55.793Z,28.13
2022-12-15T08:48:28.732Z,28.63
2022-12-15T08:51:01.828Z,29.20
2022-12-15T08:53:34.685Z,33.60
2022-12-15T08:56:08.570Z,33.35
2022-12-15T08:58:41.564Z,41.75
2022-12-15T09:01:22.889Z,28.63
2022-12-15T09:03:57.724Z,35.92
2022-12-15T09:06:32.596Z,30.67
2022-12-15T09:09:07.680Z,25.95
2022-12-15T09:11:40.274Z,34.03
2022-12-15T09:14:13.291Z,23.35
2022-12-15T09:16:45.956Z,35.03
2022-12-15T09:19:23.816Z,28.50
2022-12-15T09:21:56.471Z,34.92
2022-12-15T09:24:34.970Z,39.03
2022-12-15T09:27:08.015Z,33.75
2022-12-15T09:29:41.046Z,31.15
2022-12-15T09:32:14.607Z,23.75
2022-12-15T09:34:47.587Z,40.22
2022-12-15T09:37:22.865Z,34.08
2022-12-15T09:39:55.878Z,22.58
2022-12-15T09:42:29.548Z,24.15
2022-12-15T09:45:14.264Z,30.48
2022-12-15T09:47:53.548Z,26.50
2022-12-15T09:50:36.920Z,27.60
2022-12-15T09:53:45.499Z,39.58
2022-12-15T09:56:11.280Z,33.03
2022-12-15T09:58:54.159Z,33.03
2022-12-15T10:01:36.898Z,35.05
2022-12-15T10:04:28.332Z,53.72
2022-12-15T10:07:09.003Z,65.35
2022-12-15T10:09:41.566Z,52.17
2022-12-15T10:12:30.847Z,33.35
2022-12-15T10:15:22.094Z,33.78
2022-12-15T10:18:00.671Z,28.90
2022-12-15T10:20:33.455Z,31.15
2022-12-15T10:23:14.348Z,26.05
2022-12-15T10:25:51.406Z,24.60
2022-12-15T10:28:33.568Z,21.42
2022-12-15T10:31:25.625Z,17.67
2022-12-15T10:34:04.431Z,21.42
2022-12-15T10:36:37.093Z,26.60
2022-12-15T10:39:12.915Z,22.50
2022-12-15T10:41:47.326Z,23.10
2022-12-15T10:44:32.050Z,26.63
2022-12-15T10:49:37.480Z,19.58
2022-12-15T10:52:19.151Z,20.98
2022-12-15T10:54:52.852Z,34.60
2022-12-15T10:57:31.888Z,17.98
2022-12-15T11:00:13.788Z,26.42
2022-12-15T11:02:46.551Z,22.00
2022-12-15T11:05:21.146Z,19.05
2022-12-15T11:08:13.154Z,26.15
2022-12-15T11:11:15.549Z,33.78
2022-12-15T11:14:14.471Z,24.73
2022-12-15T11:16:58.014Z,25.75
2022-12-15T11:19:33.977Z,24.45
2022-12-15T11:22:12.929Z,34.05
2022-12-15T11:24:53.218Z,23.30
2022-12-15T11:27:32.341Z,15.82
2022-12-15T11:30:11.084Z,20.45
2022-12-15T11:32:49.192Z,26.88
2022-12-15T11:35:45.189Z,18.80
2022-12-15T11:38:25.845Z,21.88
2022-12-15T11:41:04.529Z,23.70
2022-12-15T11:43:50.475Z,18.13
2022-12-15T11:46:24.729Z,23.08
2022-12-15T11:49:00.871Z,26.70
2022-12-15T11:51:42.403Z,20.25
2022-12-15T11:54:24.691Z,26.23
2022-12-15T11:57:02.530Z,25.50
2022-12-15T11:59:35.604Z,32.72
2022-12-15T12:02:14.313Z,22.80
2022-12-15T12:05:06.019Z,23.90
2022-12-15T12:07:49.815Z,29.20
2022-12-15T12:10:43.100Z,37.08
2022-12-15T12:16:00.371Z,30.13
2022-12-15T12:18:46.164Z,24.88
2022-12-15T12:21:56.522Z,34.53
2022-12-15T12:24:50.807Z,22.52
2022-12-15T12:27:48.676Z,23.45
2022-12-15T12:30:25.285Z,31.80
2022-12-15T12:33:07.650Z,25.20
2022-12-15T12:35:46.997Z,20.00
2022-12-15T12:38:46.412Z,30.45
2022-12-15T12:41:36.003Z,24.15
2022-12-15T12:44:13.725Z,40.22
2022-12-15T12:46:49.232Z,26.77
2022-12-15T12:49:36.767Z,33.50
2022-12-15T12:52:19.042Z,169.68
2022-12-15T12:54:59.475Z,194.60
2022-12-15T12:57:58.288Z,55.42
2022-12-15T13:00:32.697Z,42.72
2022-12-15T13:03:16.732Z,51.22
2022-12-15T13:05:50.788Z,54.35
2022-12-15T13:08:28.299Z,53.20
2022-12-15T13:11:21.276Z,42.40
2022-12-15T13:13:53.978Z,48.63
2022-12-15T13:16:27.119Z,48.33
2022-12-15T13:19:04.879Z,51.05
2022-12-15T13:21:42.568Z,56.25
2022-12-15T13:24:32.743Z,65.40
2022-12-15T13:27:12.726Z,58.03
2022-12-15T13:29:59.202Z,62.40
2022-12-15T13:32:39.711Z,55.50
2022-12-15T13:35:12.662Z,43.25
2022-12-15T13:37:51.034Z,52.10
2022-12-15T13:40:24.426Z,47.47
2022-12-15T13:42:58.807Z,48.13
2022-12-15T13:45:50.298Z,68.35
2022-12-15T13:51:04.205Z,51.05
2022-12-15T13:53:39.442Z,46.58
2022-12-15T13:56:11.892Z,40.67
2022-12-15T14:01:48.220Z,47.20
2022-12-15T14:04:24.229Z,47.60
2022-12-15T14:07:03.178Z,52.85
2022-12-15T14:09:37.452Z,44.67
2022-12-15T14:12:13.816Z,42.65
2022-12-15T14:14:49.172Z,45.42
2022-12-15T14:17:22.392Z,46.95
2022-12-15T14:19:55.436Z,50.97
2022-12-15T14:22:30.129Z,53.03
2022-12-15T14:25:13.290Z,55.78
2022-12-15T14:27:50.738Z,57.60
2022-12-15T14:30:26.951Z,63.63
2022-12-15T14:33:04.447Z,56.30
2022-12-15T14:35:40.919Z,56.00
2022-12-15T14:38:16.616Z,63.25
2022-12-15T14:40:50.384Z,120.10
2022-12-15T14:43:30.169Z,110.65
2022-12-15T14:46:13.182Z,90.18
2022-12-15T14:48:51.571Z,75.93
2022-12-15T14:51:25.838Z,81.93
2022-12-15T14:53:58.435Z,134.45
2022-12-15T14:56:31.539Z,100.00
2022-12-15T14:59:06.071Z,70.75
2022-12-15T15:01:42.005Z,107.80
2022-12-15T15:03:14.141Z,45.08
2022-12-15T15:04:23.511Z,137.55
2022-12-15T15:06:57.369Z,128.63
2022-12-15T15:09:41.668Z,106.20
2022-12-15T15:12:21.837Z,101.25
2022-12-15T15:14:54.374Z,97.47
2022-12-15T15:17:38.053Z,167.05
2022-12-15T15:20:30.936Z,179.27
2022-12-15T15:23:12.511Z,164.95
2022-12-15T15:25:50.987Z,130.88
2022-12-15T15:28:26.851Z,97.53
2022-12-15T15:31:07.212Z,99.82
2022-12-15T15:33:40.562Z,137.43
2022-12-15T15:36:14.271Z,135.75
2022-12-15T15:38:47.314Z,103.45
2022-12-15T15:41:21.855Z,80.07
2022-12-15T15:43:54.771Z,68.72
2022-12-15T15:46:34.729Z,57.97
2022-12-15T15:49:09.156Z,79.25
2022-12-15T15:51:41.643Z,103.78
2022-12-15T15:54:15.731Z,72.00
2022-12-15T15:56:48.293Z,67.95
2022-12-15T15:59:21.517Z,74.18
2022-12-15T16:01:56.230Z,62.38
2022-12-15T16:04:33.675Z,64.32
2022-12-15T16:07:07.716Z,69.03
2022-12-15T16:09:40.832Z,82.35
2022-12-15T16:12:33.893Z,68.28
2022-12-15T16:15:13.543Z,57.42
2022-12-15T16:17:46.775Z,68.57
2022-12-15T16:20:21.553Z,69.03
2022-12-15T16:22:57.946Z,79.18
2022-12-15T16:25:41.208Z,79.60
2022-12-15T16:28:20.457Z,78.63
2022-12-15T16:30:53.826Z,77.07
2022-12-15T16:33:26.406Z,68.82
2022-12-15T16:35:59.690Z,81.60
2022-12-15T16:38:32.915Z,101.43
2022-12-15T16:41:07.146Z,85.28
2022-12-15T16:43:46.113Z,70.07
2022-12-15T16:46:20.913Z,91.60
2022-12-15T16:48:54.789Z,59.17
2022-12-15T16:51:37.074Z,72.13
2022-12-15T16:54:18.377Z,72.25
2022-12-15T16:59:35.399Z,93.50
2022-12-15T17:02:28.377Z,95.15
2022-12-15T17:05:01.333Z,88.63
2022-12-15T17:07:34.621Z,91.38
2022-12-15T17:10:07.403Z,85.50
2022-12-15T17:12:40.852Z,94.95
2022-12-15T17:15:24.981Z,85.03
2022-12-15T17:17:57.899Z,80.75
2022-12-15T17:20:31.333Z,94.82
2022-12-15T17:23:11.730Z,77.32
2022-12-15T17:26:19.516Z,107.18
2022-12-15T17:28:39.510Z,96.85
2022-12-15T17:31:18.896Z,94.43
2022-12-15T17:33:51.975Z,89.15
2022-12-15T17:36:27.014Z,81.82
2022-12-15T17:39:01.635Z,92.72
2022-12-15T17:41:58.889Z,101.35
2022-12-15T17:44:33.428Z,100.72
2022-12-15T17:47:07.928Z,81.00
2022-12-15T17:49:41.305Z,98.03
2022-12-15T17:52:21.841Z,109.85
2022-12-15T17:54:54.999Z,97.93
2022-12-15T17:57:27.623Z,102.10
2022-12-15T18:00:02.278Z,102.72
2022-12-15T18:02:40.866Z,104.82
2022-12-15T18:05:14.076Z,107.63
2022-12-15T18:07:51.917Z,118.72
2022-12-15T18:10:33.420Z,133.07
2022-12-15T18:13:23.660Z,122.25
2022-12-15T18:15:56.947Z,128.77
2022-12-15T18:18:29.516Z,148.70
2022-12-15T18:21:08.331Z,148.63
2022-12-15T18:23:40.894Z,131.40
2022-12-15T18:26:15.397Z,145.45
2022-12-15T18:28:49.959Z,118.88
2022-12-15T18:31:26.106Z,118.55
2022-12-15T18:34:04.473Z,113.18
2022-12-15T18:36:37.816Z,131.20
2022-12-15T18:39:18.494Z,122.88
2022-12-15T18:41:53.559Z,97.28
2022-12-15T18:44:27.265Z,98.32
2022-12-15T18:47:00.212Z,102.82
2022-12-15T18:49:32.728Z,105.25
2022-12-15T18:52:06.322Z,111.57
2022-12-15T18:54:39.026Z,140.07
2022-12-15T18:57:31.948Z,139.98
2022-12-15T19:00:13.914Z,126.10
2022-12-15T19:02:47.865Z,132.82
2022-12-15T19:05:34.143Z,128.50
2022-12-15T19:08:11.667Z,128.20
2022-12-15T19:10:49.171Z,127.97
2022-12-15T19:13:29.460Z,158.75
2022-12-15T19:16:03.270Z,110.93
2022-12-15T19:18:54.698Z,119.90
2022-12-15T19:21:50.504Z,132.77
2022-12-15T19:24:43.216Z,112.90
2022-12-15T19:27:16.796Z,114.10
2022-12-15T19:29:50.809Z,115.78
2022-12-15T19:32:23.495Z,102.65
2022-12-15T19:34:56.378Z,119.25
2022-12-15T19:37:31.157Z,156.45
2022-12-15T19:40:04.789Z,130.10
2022-12-15T19:42:41.814Z,110.78
2022-12-15T19:45:18.873Z,99.07
2022-12-15T19:47:51.761Z,112.93
2022-12-15T19:50:26.154Z,116.78
2022-12-15T19:53:00.779Z,108.00
2022-12-15T19:55:35.477Z,120.60
2022-12-15T19:58:27.548Z,89.57
2022-12-15T20:01:08.848Z,94.78
2022-12-15T20:03:42.378Z,97.30
2022-12-15T20:06:17.472Z,100.47
2022-12-15T20:08:51.766Z,95.90
2022-12-15T20:11:29.941Z,122.38
2022-12-15T20:14:03.070Z,147.43
2022-12-15T20:16:36.117Z,116.40
2022-12-15T20:19:09.109Z,143.73
2022-12-15T20:21:42.166Z,131.32
2022-12-15T20:24:16.532Z,146.05
2022-12-15T20:26:49.399Z,126.82
2022-12-15T20:29:32.391Z,154.13
2022-12-15T20:32:09.835Z,128.10
2022-12-15T20:34:42.455Z,136.75
2022-12-15T20:37:23.648Z,174.30
2022-12-15T20:39:59.603Z,156.82
2022-12-15T20:42:32.522Z,193.93
2022-12-15T20:45:05.403Z,164.73
2022-12-15T20:47:40.837Z,157.60
2022-12-15T20:50:36.686Z,198.27
2022-12-15T20:53:23.963Z,154.38
2022-12-15T20:55:56.895Z,168.60
2022-12-15T20:58:33.357Z,165.50
2022-12-15T21:01:18.673Z,162.70
2022-12-15T21:03:53.654Z,162.40
2022-12-15T21:06:27.905Z,162.30
2022-12-15T21:09:00.942Z,153.15
2022-12-15T21:11:33.904Z,168.30
2022-12-15T21:14:15.386Z,137.40
2022-12-15T21:16:47.914Z,140.35
2022-12-15T21:19:22.473Z,132.10
2022-12-15T21:21:55.982Z,125.32
2022-12-15T21:24:29.325Z,149.93
2022-12-15T21:27:01.960Z,136.70
2022-12-15T21:29:35.605Z,135.35
2022-12-15T21:32:08.208Z,158.85
2022-12-15T21:34:41.395Z,122.20
2022-12-15T21:37:28.304Z,131.02
2022-12-15T21:40:01.884Z,113.75
2022-12-15T21:42:35.818Z,120.43
2022-12-15T21:45:19.800Z,124.90
2022-12-15T21:48:11.792Z,108.57
2022-12-15T21:50:45.939Z,102.75
2022-12-15T21:53:18.698Z,114.95
2022-12-15T21:55:51.616Z,137.23
2022-12-15T21:58:27.800Z,117.50
2022-12-15T22:01:00.937Z,123.50
2022-12-15T22:03:34.117Z,111.93
2022-12-15T22:06:07.017Z,121.68
2022-12-15T22:08:39.641Z,106.18
2022-12-15T22:11:18.528Z,129.27
2022-12-15T22:13:52.390Z,120.47
2022-12-15T22:16:25.446Z,104.10
2022-12-15T22:18:58.719Z,108.30
2022-12-15T22:21:32.460Z,117.72
2022-12-15T22:24:05.271Z,105.50
2022-12-15T22:26:39.181Z,83.78
2022-12-15T22:29:19.515Z,109.20
2022-12-15T22:31:52.521Z,87.90
2022-12-15T22:34:27.883Z,103.85
2022-12-15T22:37:00.909Z,93.10
2022-12-15T22:39:34.091Z,82.18
2022-12-15T22:42:07.297Z,108.15
2022-12-15T22:44:40.784Z,77.93
2022-12-15T22:47:13.730Z,92.75
2022-12-15T22:49:46.415Z,86.13
2022-12-15T22:52:20.528Z,79.50
2022-12-15T22:54:58.175Z,85.22
2022-12-15T22:57:31.128Z,83.13
2022-12-15T23:00:07.663Z,78.18
2022-12-15T23:02:42.242Z,72.65
2022-12-15T23:05:17.279Z,80.43
2022-12-15T23:07:50.469Z,68.20
2022-12-15T23:10:42.974Z,76.95
2022-12-15T23:13:15.843Z,74.80
2022-12-15T23:16:07.037Z,75.32
2022-12-15T23:18:40.005Z,67.30
2022-12-15T23:21:12.644Z,69.63
2022-12-15T23:23:46.114Z,81.70
2022-12-15T23:26:19.409Z,66.43
2022-12-15T23:28:53.566Z,60.35
2022-12-15T23:31:27.800Z,51.20
2022-12-15T23:34:00.836Z,65.43
2022-12-15T23:36:33.432Z,69.28
2022-12-15T23:39:06.395Z,62.92
2022-12-15T23:41:38.982Z,80.22
2022-12-15T23:44:12.759Z,71.70
2022-12-15T23:46:47.017Z,63.60
2022-12-15T23:49:20.028Z,60.65
2022-12-15T23:51:52.531Z,58.78
2022-12-15T23:54:25.411Z,65.35
2022-12-15T23:56:58.017Z,60.10
2022-12-15T23:59:30.976Z,77.07
